sensor_id;sensor_type;location;lat;lon;timestamp;P1;durP1;ratioP1;P2;durP2;ratioP2
4794;SDS011;2411;47.060;15.064;2023-04-21T00:00:05;7.37;;;6.57;;
4794;SDS011;2411;47.060;15.064;2023-04-21T00:02:34;7.17;;;6.13;;
4794;SDS011;2411;47.060;15.064;2023-04-21T00:05:06;8.30;;;6.30;;
4794;SDS011;2411;47.060;15.064;2023-04-21T00:07:36;7.70;;;6.33;;
4794;SDS011;2411;47.060;15.064;2023-04-21T00:10:05;8.37;;;5.33;;
4794;SDS011;2411;47.060;15.064;2023-04-21T00:12:34;5.27;;;4.33;;
4794;SDS011;2411;47.060;15.064;2023-04-21T00:15:01;5.43;;;4.93;;
4794;SDS011;2411;47.060;15.064;2023-04-21T00:17:29;8.00;;;4.87;;
4794;SDS011;2411;47.060;15.064;2023-04-21T00:19:56;5.17;;;4.67;;
4794;SDS011;2411;47.060;15.064;2023-04-21T00:22:24;7.00;;;4.90;;
4794;SDS011;2411;47.060;15.064;2023-04-21T00:24:51;4.63;;;4.23;;
4794;SDS011;2411;47.060;15.064;2023-04-21T00:27:18;5.20;;;4.80;;
4794;SDS011;2411;47.060;15.064;2023-04-21T00:29:46;4.53;;;4.20;;
4794;SDS011;2411;47.060;15.064;2023-04-21T00:32:13;4.03;;;3.70;;
4794;SDS011;2411;47.060;15.064;2023-04-21T00:34:40;4.70;;;4.30;;
4794;SDS011;2411;47.060;15.064;2023-04-21T00:37:07;5.70;;;5.10;;
4794;SDS011;2411;47.060;15.064;2023-04-21T00:39:35;4.03;;;3.70;;
4794;SDS011;2411;47.060;15.064;2023-04-21T00:42:02;4.90;;;4.47;;
4794;SDS011;2411;47.060;15.064;2023-04-21T00:44:29;5.70;;;5.10;;
4794;SDS011;2411;47.060;15.064;2023-04-21T00:46:57;5.50;;;5.00;;
4794;SDS011;2411;47.060;15.064;2023-04-21T00:49:24;12.83;;;6.10;;
4794;SDS011;2411;47.060;15.064;2023-04-21T00:51:52;7.20;;;5.67;;
4794;SDS011;2411;47.060;15.064;2023-04-21T00:54:20;7.23;;;5.27;;
4794;SDS011;2411;47.060;15.064;2023-04-21T00:56:51;8.93;;;6.57;;
4794;SDS011;2411;47.060;15.064;2023-04-21T00:59:19;7.00;;;5.63;;
4794;SDS011;2411;47.060;15.064;2023-04-21T01:01:46;10.43;;;6.27;;
4794;SDS011;2411;47.060;15.064;2023-04-21T01:04:14;9.57;;;6.30;;
4794;SDS011;2411;47.060;15.064;2023-04-21T01:06:41;7.50;;;5.50;;
4794;SDS011;2411;47.060;15.064;2023-04-21T01:09:09;8.60;;;5.07;;
4794;SDS011;2411;47.060;15.064;2023-04-21T01:11:38;4.77;;;4.33;;
4794;SDS011;2411;47.060;15.064;2023-04-21T01:14:05;5.37;;;4.87;;
4794;SDS011;2411;47.060;15.064;2023-04-21T01:16:33;4.93;;;4.30;;
4794;SDS011;2411;47.060;15.064;2023-04-21T01:19:00;5.33;;;3.60;;
4794;SDS011;2411;47.060;15.064;2023-04-21T01:21:27;4.13;;;3.80;;
4794;SDS011;2411;47.060;15.064;2023-04-21T01:23:57;3.50;;;3.20;;
4794;SDS011;2411;47.060;15.064;2023-04-21T01:26:24;4.40;;;4.00;;
4794;SDS011;2411;47.060;15.064;2023-04-21T01:28:54;3.87;;;3.60;;
4794;SDS011;2411;47.060;15.064;2023-04-21T01:31:22;4.77;;;4.43;;
4794;SDS011;2411;47.060;15.064;2023-04-21T01:33:50;3.37;;;3.17;;
4794;SDS011;2411;47.060;15.064;2023-04-21T01:36:17;3.53;;;3.33;;
4794;SDS011;2411;47.060;15.064;2023-04-21T01:38:44;3.70;;;3.13;;
4794;SDS011;2411;47.060;15.064;2023-04-21T01:41:11;4.33;;;3.93;;
4794;SDS011;2411;47.060;15.064;2023-04-21T01:43:39;2.97;;;2.77;;
4794;SDS011;2411;47.060;15.064;2023-04-21T01:46:06;3.50;;;3.30;;
4794;SDS011;2411;47.060;15.064;2023-04-21T01:48:35;4.73;;;3.60;;
4794;SDS011;2411;47.060;15.064;2023-04-21T01:51:02;4.47;;;2.87;;
4794;SDS011;2411;47.060;15.064;2023-04-21T01:53:30;3.83;;;3.53;;
4794;SDS011;2411;47.060;15.064;2023-04-21T01:55:57;2.87;;;2.70;;
4794;SDS011;2411;47.060;15.064;2023-04-21T01:58:24;5.00;;;3.40;;
4794;SDS011;2411;47.060;15.064;2023-04-21T02:00:52;3.07;;;2.87;;
4794;SDS011;2411;47.060;15.064;2023-04-21T02:03:19;4.23;;;3.10;;
4794;SDS011;2411;47.060;15.064;2023-04-21T02:05:46;3.70;;;3.47;;
4794;SDS011;2411;47.060;15.064;2023-04-21T02:08:16;4.93;;;3.40;;
4794;SDS011;2411;47.060;15.064;2023-04-21T02:10:43;5.50;;;3.63;;
4794;SDS011;2411;47.060;15.064;2023-04-21T02:13:10;3.60;;;3.30;;
4794;SDS011;2411;47.060;15.064;2023-04-21T02:15:38;3.40;;;3.20;;
4794;SDS011;2411;47.060;15.064;2023-04-21T02:18:05;5.30;;;3.83;;
4794;SDS011;2411;47.060;15.064;2023-04-21T02:20:33;3.97;;;3.67;;
4794;SDS011;2411;47.060;15.064;2023-04-21T02:23:01;6.37;;;4.77;;
4794;SDS011;2411;47.060;15.064;2023-04-21T02:25:28;3.60;;;3.30;;
4794;SDS011;2411;47.060;15.064;2023-04-21T02:27:56;4.07;;;3.83;;
4794;SDS011;2411;47.060;15.064;2023-04-21T02:30:23;4.03;;;3.73;;
4794;SDS011;2411;47.060;15.064;2023-04-21T02:32:50;4.73;;;4.27;;
4794;SDS011;2411;47.060;15.064;2023-04-21T02:35:18;3.27;;;3.03;;
4794;SDS011;2411;47.060;15.064;2023-04-21T02:37:45;3.57;;;3.30;;
4794;SDS011;2411;47.060;15.064;2023-04-21T02:40:12;3.50;;;3.20;;
4794;SDS011;2411;47.060;15.064;2023-04-21T02:42:40;3.73;;;3.43;;
4794;SDS011;2411;47.060;15.064;2023-04-21T02:45:07;4.73;;;4.10;;
4794;SDS011;2411;47.060;15.064;2023-04-21T02:47:35;5.83;;;3.73;;
4794;SDS011;2411;47.060;15.064;2023-04-21T02:50:03;3.07;;;2.93;;
4794;SDS011;2411;47.060;15.064;2023-04-21T02:52:34;4.03;;;3.63;;
4794;SDS011;2411;47.060;15.064;2023-04-21T02:55:02;3.67;;;3.40;;
4794;SDS011;2411;47.060;15.064;2023-04-21T02:57:30;3.70;;;3.40;;
4794;SDS011;2411;47.060;15.064;2023-04-21T02:59:57;4.53;;;4.10;;
4794;SDS011;2411;47.060;15.064;2023-04-21T03:02:24;5.07;;;4.60;;
4794;SDS011;2411;47.060;15.064;2023-04-21T03:04:52;4.10;;;3.80;;
4794;SDS011;2411;47.060;15.064;2023-04-21T03:07:19;4.67;;;3.73;;
4794;SDS011;2411;47.060;15.064;2023-04-21T03:09:46;4.30;;;3.77;;
4794;SDS011;2411;47.060;15.064;2023-04-21T03:12:14;5.60;;;4.40;;
4794;SDS011;2411;47.060;15.064;2023-04-21T03:14:41;4.70;;;4.30;;
4794;SDS011;2411;47.060;15.064;2023-04-21T03:17:08;3.77;;;3.57;;
4794;SDS011;2411;47.060;15.064;2023-04-21T03:19:36;3.97;;;3.67;;
4794;SDS011;2411;47.060;15.064;2023-04-21T03:22:03;5.80;;;5.30;;
4794;SDS011;2411;47.060;15.064;2023-04-21T03:24:30;3.63;;;3.43;;
4794;SDS011;2411;47.060;15.064;2023-04-21T03:26:58;4.43;;;3.77;;
4794;SDS011;2411;47.060;15.064;2023-04-21T03:29:25;3.90;;;3.47;;
4794;SDS011;2411;47.060;15.064;2023-04-21T03:31:52;4.10;;;3.80;;
4794;SDS011;2411;47.060;15.064;2023-04-21T03:34:20;5.03;;;4.53;;
4794;SDS011;2411;47.060;15.064;2023-04-21T03:36:47;4.83;;;4.30;;
4794;SDS011;2411;47.060;15.064;2023-04-21T03:39:14;5.03;;;4.57;;
4794;SDS011;2411;47.060;15.064;2023-04-21T03:41:46;4.33;;;3.93;;
4794;SDS011;2411;47.060;15.064;2023-04-21T03:44:13;4.83;;;4.43;;
4794;SDS011;2411;47.060;15.064;2023-04-21T03:46:41;7.00;;;4.47;;
4794;SDS011;2411;47.060;15.064;2023-04-21T03:49:08;4.90;;;4.50;;
4794;SDS011;2411;47.060;15.064;2023-04-21T03:51:35;7.20;;;4.27;;
4794;SDS011;2411;47.060;15.064;2023-04-21T03:54:03;6.30;;;4.53;;
4794;SDS011;2411;47.060;15.064;2023-04-21T03:56:30;5.23;;;4.40;;
4794;SDS011;2411;47.060;15.064;2023-04-21T03:58:57;6.33;;;4.77;;
4794;SDS011;2411;47.060;15.064;2023-04-21T04:01:24;4.80;;;4.40;;
4794;SDS011;2411;47.060;15.064;2023-04-21T04:03:52;5.20;;;4.70;;
4794;SDS011;2411;47.060;15.064;2023-04-21T04:06:20;6.37;;;4.47;;
4794;SDS011;2411;47.060;15.064;2023-04-21T04:08:47;3.80;;;3.37;;
4794;SDS011;2411;47.060;15.064;2023-04-21T04:11:14;4.00;;;3.70;;
4794;SDS011;2411;47.060;15.064;2023-04-21T04:13:41;3.80;;;3.50;;
4794;SDS011;2411;47.060;15.064;2023-04-21T04:16:09;4.27;;;3.87;;
4794;SDS011;2411;47.060;15.064;2023-04-21T04:18:36;4.50;;;4.20;;
4794;SDS011;2411;47.060;15.064;2023-04-21T04:21:04;5.33;;;4.83;;
4794;SDS011;2411;47.060;15.064;2023-04-21T04:23:33;4.73;;;4.30;;
4794;SDS011;2411;47.060;15.064;2023-04-21T04:26:00;5.30;;;4.80;;
4794;SDS011;2411;47.060;15.064;2023-04-21T04:28:31;6.07;;;4.50;;
4794;SDS011;2411;47.060;15.064;2023-04-21T04:30:59;5.33;;;4.80;;
4794;SDS011;2411;47.060;15.064;2023-04-21T04:33:26;5.20;;;4.70;;
4794;SDS011;2411;47.060;15.064;2023-04-21T04:35:54;6.30;;;5.70;;
4794;SDS011;2411;47.060;15.064;2023-04-21T04:38:21;5.63;;;5.23;;
4794;SDS011;2411;47.060;15.064;2023-04-21T04:40:54;4.43;;;4.10;;
4794;SDS011;2411;47.060;15.064;2023-04-21T04:43:27;4.80;;;4.30;;
4794;SDS011;2411;47.060;15.064;2023-04-21T04:45:54;4.60;;;4.20;;
4794;SDS011;2411;47.060;15.064;2023-04-21T04:48:22;9.50;;;5.53;;
4794;SDS011;2411;47.060;15.064;2023-04-21T04:50:50;3.87;;;3.57;;
4794;SDS011;2411;47.060;15.064;2023-04-21T04:53:17;3.80;;;3.50;;
4794;SDS011;2411;47.060;15.064;2023-04-21T04:55:44;4.43;;;4.03;;
4794;SDS011;2411;47.060;15.064;2023-04-21T04:58:12;6.37;;;5.83;;
4794;SDS011;2411;47.060;15.064;2023-04-21T05:00:40;5.43;;;5.03;;
4794;SDS011;2411;47.060;15.064;2023-04-21T05:03:07;6.93;;;3.20;;
4794;SDS011;2411;47.060;15.064;2023-04-21T05:05:35;4.17;;;3.83;;
4794;SDS011;2411;47.060;15.064;2023-04-21T05:08:02;5.53;;;3.83;;
4794;SDS011;2411;47.060;15.064;2023-04-21T05:10:29;9.40;;;3.83;;
4794;SDS011;2411;47.060;15.064;2023-04-21T05:12:57;4.20;;;3.80;;
4794;SDS011;2411;47.060;15.064;2023-04-21T05:15:24;4.23;;;3.83;;
4794;SDS011;2411;47.060;15.064;2023-04-21T05:17:51;3.73;;;3.50;;
4794;SDS011;2411;47.060;15.064;2023-04-21T05:20:18;4.30;;;3.90;;
4794;SDS011;2411;47.060;15.064;2023-04-21T05:22:46;6.97;;;3.80;;
4794;SDS011;2411;47.060;15.064;2023-04-21T05:25:14;4.37;;;4.00;;
4794;SDS011;2411;47.060;15.064;2023-04-21T05:27:41;6.87;;;4.03;;
4794;SDS011;2411;47.060;15.064;2023-04-21T05:30:09;9.10;;;3.60;;
4794;SDS011;2411;47.060;15.064;2023-04-21T05:32:37;4.20;;;3.63;;
4794;SDS011;2411;47.060;15.064;2023-04-21T05:35:04;4.23;;;3.90;;
4794;SDS011;2411;47.060;15.064;2023-04-21T05:37:32;7.23;;;4.13;;
4794;SDS011;2411;47.060;15.064;2023-04-21T05:39:59;8.00;;;4.07;;
4794;SDS011;2411;47.060;15.064;2023-04-21T05:42:26;8.50;;;4.13;;
4794;SDS011;2411;47.060;15.064;2023-04-21T05:44:53;4.83;;;4.33;;
4794;SDS011;2411;47.060;15.064;2023-04-21T05:47:21;5.17;;;4.70;;
4794;SDS011;2411;47.060;15.064;2023-04-21T05:49:51;6.60;;;6.07;;
4794;SDS011;2411;47.060;15.064;2023-04-21T05:52:19;6.97;;;5.50;;
4794;SDS011;2411;47.060;15.064;2023-04-21T05:54:47;9.10;;;6.50;;
4794;SDS011;2411;47.060;15.064;2023-04-21T05:57:14;5.97;;;5.37;;
4794;SDS011;2411;47.060;15.064;2023-04-21T05:59:43;6.37;;;5.67;;
4794;SDS011;2411;47.060;15.064;2023-04-21T06:02:10;9.10;;;6.40;;
4794;SDS011;2411;47.060;15.064;2023-04-21T06:04:38;8.27;;;6.30;;
4794;SDS011;2411;47.060;15.064;2023-04-21T06:07:06;7.43;;;5.43;;
4794;SDS011;2411;47.060;15.064;2023-04-21T06:09:35;5.60;;;5.13;;
4794;SDS011;2411;47.060;15.064;2023-04-21T06:12:02;5.90;;;4.80;;
4794;SDS011;2411;47.060;15.064;2023-04-21T06:14:30;5.17;;;4.77;;
4794;SDS011;2411;47.060;15.064;2023-04-21T06:16:57;5.33;;;4.83;;
4794;SDS011;2411;47.060;15.064;2023-04-21T06:19:24;4.57;;;4.10;;
4794;SDS011;2411;47.060;15.064;2023-04-21T06:21:51;5.00;;;4.50;;
4794;SDS011;2411;47.060;15.064;2023-04-21T06:24:19;5.50;;;4.73;;
4794;SDS011;2411;47.060;15.064;2023-04-21T06:26:51;4.47;;;4.07;;
4794;SDS011;2411;47.060;15.064;2023-04-21T06:29:19;4.63;;;4.00;;
4794;SDS011;2411;47.060;15.064;2023-04-21T06:31:46;5.80;;;4.67;;
4794;SDS011;2411;47.060;15.064;2023-04-21T06:34:14;5.77;;;4.47;;
4794;SDS011;2411;47.060;15.064;2023-04-21T06:36:41;4.27;;;3.87;;
4794;SDS011;2411;47.060;15.064;2023-04-21T06:39:09;8.30;;;4.70;;
4794;SDS011;2411;47.060;15.064;2023-04-21T06:41:36;9.50;;;4.40;;
4794;SDS011;2411;47.060;15.064;2023-04-21T06:44:03;10.00;;;5.37;;
4794;SDS011;2411;47.060;15.064;2023-04-21T06:46:31;6.90;;;4.27;;
4794;SDS011;2411;47.060;15.064;2023-04-21T06:48:58;7.53;;;3.90;;
4794;SDS011;2411;47.060;15.064;2023-04-21T06:51:25;5.27;;;4.03;;
4794;SDS011;2411;47.060;15.064;2023-04-21T06:53:52;6.83;;;4.10;;
4794;SDS011;2411;47.060;15.064;2023-04-21T06:56:20;6.57;;;4.20;;
4794;SDS011;2411;47.060;15.064;2023-04-21T06:58:47;6.67;;;4.17;;
4794;SDS011;2411;47.060;15.064;2023-04-21T07:01:14;7.50;;;3.77;;
4794;SDS011;2411;47.060;15.064;2023-04-21T07:03:42;6.13;;;3.80;;
4794;SDS011;2411;47.060;15.064;2023-04-21T07:06:09;11.47;;;4.03;;
4794;SDS011;2411;47.060;15.064;2023-04-21T07:08:37;4.80;;;3.80;;
4794;SDS011;2411;47.060;15.064;2023-04-21T07:11:05;4.17;;;3.80;;
4794;SDS011;2411;47.060;15.064;2023-04-21T07:13:32;3.63;;;3.33;;
4794;SDS011;2411;47.060;15.064;2023-04-21T07:15:59;6.60;;;3.83;;
4794;SDS011;2411;47.060;15.064;2023-04-21T07:18:26;3.60;;;3.30;;
4794;SDS011;2411;47.060;15.064;2023-04-21T07:20:54;3.90;;;3.27;;
4794;SDS011;2411;47.060;15.064;2023-04-21T07:23:21;4.17;;;3.57;;
4794;SDS011;2411;47.060;15.064;2023-04-21T07:25:48;3.87;;;3.40;;
4794;SDS011;2411;47.060;15.064;2023-04-21T07:28:17;4.27;;;3.67;;
4794;SDS011;2411;47.060;15.064;2023-04-21T07:30:44;3.67;;;3.37;;
4794;SDS011;2411;47.060;15.064;2023-04-21T07:33:12;6.33;;;4.00;;
4794;SDS011;2411;47.060;15.064;2023-04-21T07:35:39;6.53;;;3.90;;
4794;SDS011;2411;47.060;15.064;2023-04-21T07:38:07;4.73;;;4.03;;
4794;SDS011;2411;47.060;15.064;2023-04-21T07:40:34;8.30;;;3.73;;
4794;SDS011;2411;47.060;15.064;2023-04-21T07:43:02;5.53;;;3.60;;
4794;SDS011;2411;47.060;15.064;2023-04-21T07:45:29;4.27;;;3.77;;
4794;SDS011;2411;47.060;15.064;2023-04-21T07:47:56;4.80;;;3.00;;
4794;SDS011;2411;47.060;15.064;2023-04-21T07:50:24;3.63;;;3.33;;
4794;SDS011;2411;47.060;15.064;2023-04-21T07:52:52;3.53;;;3.23;;
4794;SDS011;2411;47.060;15.064;2023-04-21T07:55:20;6.30;;;3.20;;
4794;SDS011;2411;47.060;15.064;2023-04-21T07:57:47;5.07;;;4.03;;
4794;SDS011;2411;47.060;15.064;2023-04-21T08:00:15;4.67;;;3.60;;
4794;SDS011;2411;47.060;15.064;2023-04-21T08:02:42;6.20;;;3.87;;
4794;SDS011;2411;47.060;15.064;2023-04-21T08:05:10;5.43;;;3.30;;
4794;SDS011;2411;47.060;15.064;2023-04-21T08:07:37;6.10;;;3.80;;
4794;SDS011;2411;47.060;15.064;2023-04-21T08:10:05;3.97;;;3.57;;
4794;SDS011;2411;47.060;15.064;2023-04-21T08:12:33;4.37;;;3.20;;
4794;SDS011;2411;47.060;15.064;2023-04-21T08:15:01;4.33;;;3.77;;
4794;SDS011;2411;47.060;15.064;2023-04-21T08:17:31;4.73;;;3.97;;
4794;SDS011;2411;47.060;15.064;2023-04-21T08:19:59;6.13;;;3.90;;
4794;SDS011;2411;47.060;15.064;2023-04-21T08:22:26;3.60;;;3.30;;
4794;SDS011;2411;47.060;15.064;2023-04-21T08:24:54;4.10;;;3.70;;
4794;SDS011;2411;47.060;15.064;2023-04-21T08:27:21;4.37;;;3.43;;
4794;SDS011;2411;47.060;15.064;2023-04-21T08:29:49;6.10;;;3.80;;
4794;SDS011;2411;47.060;15.064;2023-04-21T08:32:16;6.07;;;4.20;;
4794;SDS011;2411;47.060;15.064;2023-04-21T08:34:49;4.50;;;4.10;;
4794;SDS011;2411;47.060;15.064;2023-04-21T08:37:18;4.20;;;3.80;;
4794;SDS011;2411;47.060;15.064;2023-04-21T08:39:47;4.97;;;4.47;;
4794;SDS011;2411;47.060;15.064;2023-04-21T08:42:19;4.90;;;4.40;;
4794;SDS011;2411;47.060;15.064;2023-04-21T08:44:46;9.13;;;4.07;;
4794;SDS011;2411;47.060;15.064;2023-04-21T08:47:14;5.63;;;4.70;;
4794;SDS011;2411;47.060;15.064;2023-04-21T08:49:41;5.90;;;4.50;;
4794;SDS011;2411;47.060;15.064;2023-04-21T08:52:11;4.60;;;4.20;;
4794;SDS011;2411;47.060;15.064;2023-04-21T08:54:40;4.47;;;4.07;;
4794;SDS011;2411;47.060;15.064;2023-04-21T08:57:07;6.07;;;4.07;;
4794;SDS011;2411;47.060;15.064;2023-04-21T08:59:41;4.73;;;3.80;;
4794;SDS011;2411;47.060;15.064;2023-04-21T09:02:13;4.57;;;4.20;;
4794;SDS011;2411;47.060;15.064;2023-04-21T09:04:43;5.70;;;4.23;;
4794;SDS011;2411;47.060;15.064;2023-04-21T09:07:28;4.87;;;4.37;;
4794;SDS011;2411;47.060;15.064;2023-04-21T09:10:02;8.93;;;5.13;;
4794;SDS011;2411;47.060;15.064;2023-04-21T09:12:31;5.00;;;4.10;;
4794;SDS011;2411;47.060;15.064;2023-04-21T09:14:58;4.77;;;4.00;;
4794;SDS011;2411;47.060;15.064;2023-04-21T09:17:30;4.53;;;4.13;;
4794;SDS011;2411;47.060;15.064;2023-04-21T09:20:20;6.63;;;4.60;;
4794;SDS011;2411;47.060;15.064;2023-04-21T09:22:47;5.50;;;5.10;;
4794;SDS011;2411;47.060;15.064;2023-04-21T09:25:20;4.60;;;4.20;;
4794;SDS011;2411;47.060;15.064;2023-04-21T09:27:48;4.87;;;4.47;;
4794;SDS011;2411;47.060;15.064;2023-04-21T09:30:18;4.20;;;3.80;;
4794;SDS011;2411;47.060;15.064;2023-04-21T09:32:46;5.27;;;4.77;;
4794;SDS011;2411;47.060;15.064;2023-04-21T09:35:13;5.63;;;4.30;;
4794;SDS011;2411;47.060;15.064;2023-04-21T09:37:42;4.93;;;4.43;;
4794;SDS011;2411;47.060;15.064;2023-04-21T09:40:13;4.90;;;4.50;;
4794;SDS011;2411;47.060;15.064;2023-04-21T09:42:43;4.73;;;4.23;;
4794;SDS011;2411;47.060;15.064;2023-04-21T09:45:11;4.57;;;4.13;;
4794;SDS011;2411;47.060;15.064;2023-04-21T09:47:42;4.93;;;4.30;;
4794;SDS011;2411;47.060;15.064;2023-04-21T09:50:16;5.17;;;4.67;;
4794;SDS011;2411;47.060;15.064;2023-04-21T09:53:06;5.93;;;4.30;;
4794;SDS011;2411;47.060;15.064;2023-04-21T09:55:39;6.30;;;5.70;;
4794;SDS011;2411;47.060;15.064;2023-04-21T09:58:08;6.50;;;5.90;;
4794;SDS011;2411;47.060;15.064;2023-04-21T10:00:37;5.30;;;4.80;;
4794;SDS011;2411;47.060;15.064;2023-04-21T10:03:05;6.77;;;6.10;;
4794;SDS011;2411;47.060;15.064;2023-04-21T10:05:37;6.20;;;5.27;;
4794;SDS011;2411;47.060;15.064;2023-04-21T10:08:08;6.07;;;5.47;;
4794;SDS011;2411;47.060;15.064;2023-04-21T10:10:37;6.17;;;5.57;;
4794;SDS011;2411;47.060;15.064;2023-04-21T10:13:05;8.57;;;7.30;;
4794;SDS011;2411;47.060;15.064;2023-04-21T10:15:38;6.20;;;5.60;;
4794;SDS011;2411;47.060;15.064;2023-04-21T10:18:22;7.13;;;6.00;;
4794;SDS011;2411;47.060;15.064;2023-04-21T10:26:01;7.43;;;6.47;;
4794;SDS011;2411;47.060;15.064;2023-04-21T10:28:43;8.63;;;6.40;;
4794;SDS011;2411;47.060;15.064;2023-04-21T10:36:34;7.10;;;5.67;;
4794;SDS011;2411;47.060;15.064;2023-04-21T10:39:08;6.90;;;5.17;;
4794;SDS011;2411;47.060;15.064;2023-04-21T10:41:38;6.97;;;5.50;;
4794;SDS011;2411;47.060;15.064;2023-04-21T10:49:05;7.03;;;6.00;;
4794;SDS011;2411;47.060;15.064;2023-04-21T10:57:09;6.10;;;5.50;;
4794;SDS011;2411;47.060;15.064;2023-04-21T10:59:41;8.70;;;5.43;;
4794;SDS011;2411;47.060;15.064;2023-04-21T11:02:10;7.03;;;4.90;;
4794;SDS011;2411;47.060;15.064;2023-04-21T11:04:39;7.37;;;5.20;;
4794;SDS011;2411;47.060;15.064;2023-04-21T11:07:14;5.27;;;4.80;;
4794;SDS011;2411;47.060;15.064;2023-04-21T11:12:29;6.10;;;4.73;;
4794;SDS011;2411;47.060;15.064;2023-04-21T11:14:58;6.33;;;5.67;;
4794;SDS011;2411;47.060;15.064;2023-04-21T11:17:28;5.73;;;5.20;;
4794;SDS011;2411;47.060;15.064;2023-04-21T11:19:57;5.67;;;5.13;;
4794;SDS011;2411;47.060;15.064;2023-04-21T11:22:25;7.60;;;5.10;;
4794;SDS011;2411;47.060;15.064;2023-04-21T11:24:53;5.80;;;5.30;;
4794;SDS011;2411;47.060;15.064;2023-04-21T11:27:21;5.03;;;4.67;;
4794;SDS011;2411;47.060;15.064;2023-04-21T11:29:51;3.70;;;3.50;;
4794;SDS011;2411;47.060;15.064;2023-04-21T11:32:19;4.10;;;3.70;;
4794;SDS011;2411;47.060;15.064;2023-04-21T11:34:46;4.77;;;4.37;;
4794;SDS011;2411;47.060;15.064;2023-04-21T11:37:22;5.50;;;4.00;;
4794;SDS011;2411;47.060;15.064;2023-04-21T11:39:56;5.40;;;3.60;;
4794;SDS011;2411;47.060;15.064;2023-04-21T11:42:27;3.73;;;3.37;;
4794;SDS011;2411;47.060;15.064;2023-04-21T11:44:54;4.30;;;3.50;;
4794;SDS011;2411;47.060;15.064;2023-04-21T11:47:23;3.70;;;2.93;;
4794;SDS011;2411;47.060;15.064;2023-04-21T11:49:53;4.50;;;3.03;;
4794;SDS011;2411;47.060;15.064;2023-04-21T11:54:59;2.80;;;2.67;;
4794;SDS011;2411;47.060;15.064;2023-04-21T11:57:27;2.80;;;2.50;;
4794;SDS011;2411;47.060;15.064;2023-04-21T11:59:59;2.60;;;2.50;;
4794;SDS011;2411;47.060;15.064;2023-04-21T12:02:31;2.63;;;2.43;;
4794;SDS011;2411;47.060;15.064;2023-04-21T12:05:00;2.77;;;2.57;;
4794;SDS011;2411;47.060;15.064;2023-04-21T12:07:45;2.77;;;2.57;;
4794;SDS011;2411;47.060;15.064;2023-04-21T12:10:18;3.63;;;2.50;;
4794;SDS011;2411;47.060;15.064;2023-04-21T12:12:46;3.80;;;3.40;;
4794;SDS011;2411;47.060;15.064;2023-04-21T12:15:18;3.07;;;2.87;;
4794;SDS011;2411;47.060;15.064;2023-04-21T12:17:49;4.83;;;2.50;;
4794;SDS011;2411;47.060;15.064;2023-04-21T12:20:19;3.43;;;3.20;;
4794;SDS011;2411;47.060;15.064;2023-04-21T12:22:48;3.30;;;3.10;;
4794;SDS011;2411;47.060;15.064;2023-04-21T12:25:16;2.70;;;2.50;;
4794;SDS011;2411;47.060;15.064;2023-04-21T12:27:47;3.20;;;2.90;;
4794;SDS011;2411;47.060;15.064;2023-04-21T12:30:15;3.37;;;3.17;;
4794;SDS011;2411;47.060;15.064;2023-04-21T12:32:42;3.63;;;2.90;;
4794;SDS011;2411;47.060;15.064;2023-04-21T12:35:10;2.70;;;2.50;;
4794;SDS011;2411;47.060;15.064;2023-04-21T12:37:37;3.00;;;2.80;;
4794;SDS011;2411;47.060;15.064;2023-04-21T12:40:05;6.43;;;2.90;;
4794;SDS011;2411;47.060;15.064;2023-04-21T12:42:33;4.93;;;3.40;;
4794;SDS011;2411;47.060;15.064;2023-04-21T12:45:04;3.87;;;3.60;;
4794;SDS011;2411;47.060;15.064;2023-04-21T12:47:32;4.70;;;4.30;;
4794;SDS011;2411;47.060;15.064;2023-04-21T12:50:00;8.53;;;5.30;;
4794;SDS011;2411;47.060;15.064;2023-04-21T12:52:28;6.43;;;4.80;;
4794;SDS011;2411;47.060;15.064;2023-04-21T12:54:55;6.33;;;3.00;;
4794;SDS011;2411;47.060;15.064;2023-04-21T12:57:22;2.90;;;2.70;;
4794;SDS011;2411;47.060;15.064;2023-04-21T12:59:49;3.30;;;3.10;;
4794;SDS011;2411;47.060;15.064;2023-04-21T13:02:16;4.17;;;3.80;;
4794;SDS011;2411;47.060;15.064;2023-04-21T13:04:44;3.67;;;3.13;;
4794;SDS011;2411;47.060;15.064;2023-04-21T13:07:11;3.50;;;3.30;;
4794;SDS011;2411;47.060;15.064;2023-04-21T13:09:39;3.80;;;3.50;;
4794;SDS011;2411;47.060;15.064;2023-04-21T13:12:06;3.20;;;3.00;;
4794;SDS011;2411;47.060;15.064;2023-04-21T13:14:34;3.67;;;3.43;;
4794;SDS011;2411;47.060;15.064;2023-04-21T13:17:01;3.37;;;3.10;;
4794;SDS011;2411;47.060;15.064;2023-04-21T13:19:28;3.13;;;2.93;;
4794;SDS011;2411;47.060;15.064;2023-04-21T13:21:56;2.70;;;2.50;;
4794;SDS011;2411;47.060;15.064;2023-04-21T13:24:23;2.67;;;2.47;;
4794;SDS011;2411;47.060;15.064;2023-04-21T13:26:52;3.27;;;2.13;;
4794;SDS011;2411;47.060;15.064;2023-04-21T13:29:20;2.73;;;2.20;;
4794;SDS011;2411;47.060;15.064;2023-04-21T13:31:47;2.10;;;2.00;;
4794;SDS011;2411;47.060;15.064;2023-04-21T13:34:14;2.30;;;2.10;;
4794;SDS011;2411;47.060;15.064;2023-04-21T13:36:42;2.50;;;2.30;;
4794;SDS011;2411;47.060;15.064;2023-04-21T13:39:09;1.80;;;1.70;;
4794;SDS011;2411;47.060;15.064;2023-04-21T13:41:37;1.70;;;1.60;;
4794;SDS011;2411;47.060;15.064;2023-04-21T13:44:04;2.17;;;2.07;;
4794;SDS011;2411;47.060;15.064;2023-04-21T13:46:32;1.93;;;1.83;;
4794;SDS011;2411;47.060;15.064;2023-04-21T13:48:59;1.93;;;1.83;;
4794;SDS011;2411;47.060;15.064;2023-04-21T13:51:27;2.07;;;1.97;;
4794;SDS011;2411;47.060;15.064;2023-04-21T13:53:55;2.50;;;2.30;;
4794;SDS011;2411;47.060;15.064;2023-04-21T13:56:23;1.33;;;1.33;;
4794;SDS011;2411;47.060;15.064;2023-04-21T13:58:51;1.53;;;1.53;;
4794;SDS011;2411;47.060;15.064;2023-04-21T14:01:18;2.20;;;2.10;;
4794;SDS011;2411;47.060;15.064;2023-04-21T14:03:47;1.77;;;1.40;;
4794;SDS011;2411;47.060;15.064;2023-04-21T14:06:15;1.93;;;1.50;;
4794;SDS011;2411;47.060;15.064;2023-04-21T14:08:42;1.90;;;1.80;;
4794;SDS011;2411;47.060;15.064;2023-04-21T14:11:10;1.90;;;1.80;;
4794;SDS011;2411;47.060;15.064;2023-04-21T14:13:37;2.10;;;2.00;;
4794;SDS011;2411;47.060;15.064;2023-04-21T14:16:17;2.13;;;2.03;;
4794;SDS011;2411;47.060;15.064;2023-04-21T14:18:45;1.90;;;1.80;;
4794;SDS011;2411;47.060;15.064;2023-04-21T14:21:13;2.50;;;2.40;;
4794;SDS011;2411;47.060;15.064;2023-04-21T14:23:40;2.27;;;2.17;;
4794;SDS011;2411;47.060;15.064;2023-04-21T14:26:07;1.80;;;1.70;;
4794;SDS011;2411;47.060;15.064;2023-04-21T14:28:34;2.67;;;2.47;;
4794;SDS011;2411;47.060;15.064;2023-04-21T14:31:02;2.20;;;2.10;;
4794;SDS011;2411;47.060;15.064;2023-04-21T14:33:30;2.60;;;2.40;;
4794;SDS011;2411;47.060;15.064;2023-04-21T14:35:58;5.37;;;2.50;;
4794;SDS011;2411;47.060;15.064;2023-04-21T14:38:26;2.90;;;2.70;;
4794;SDS011;2411;47.060;15.064;2023-04-21T14:40:55;3.00;;;2.90;;
4794;SDS011;2411;47.060;15.064;2023-04-21T14:43:22;3.03;;;2.50;;
4794;SDS011;2411;47.060;15.064;2023-04-21T14:45:49;3.43;;;3.23;;
4794;SDS011;2411;47.060;15.064;2023-04-21T14:48:17;3.10;;;2.80;;
4794;SDS011;2411;47.060;15.064;2023-04-21T14:50:44;3.17;;;2.97;;
4794;SDS011;2411;47.060;15.064;2023-04-21T14:53:11;2.53;;;2.33;;
4794;SDS011;2411;47.060;15.064;2023-04-21T14:55:39;3.00;;;2.60;;
4794;SDS011;2411;47.060;15.064;2023-04-21T14:58:06;3.07;;;2.87;;
4794;SDS011;2411;47.060;15.064;2023-04-21T15:00:33;3.03;;;2.83;;
4794;SDS011;2411;47.060;15.064;2023-04-21T15:03:02;3.53;;;3.23;;
4794;SDS011;2411;47.060;15.064;2023-04-21T15:05:29;3.10;;;2.90;;
4794;SDS011;2411;47.060;15.064;2023-04-21T15:07:58;5.17;;;3.97;;
4794;SDS011;2411;47.060;15.064;2023-04-21T15:10:25;3.30;;;3.10;;
4794;SDS011;2411;47.060;15.064;2023-04-21T15:12:53;4.00;;;3.60;;
4794;SDS011;2411;47.060;15.064;2023-04-21T15:15:20;3.77;;;3.47;;
4794;SDS011;2411;47.060;15.064;2023-04-21T15:17:47;3.73;;;3.43;;
4794;SDS011;2411;47.060;15.064;2023-04-21T15:20:15;3.53;;;3.23;;
4794;SDS011;2411;47.060;15.064;2023-04-21T15:22:42;4.73;;;4.33;;
4794;SDS011;2411;47.060;15.064;2023-04-21T15:25:09;4.67;;;4.00;;
4794;SDS011;2411;47.060;15.064;2023-04-21T15:27:37;3.67;;;3.37;;
4794;SDS011;2411;47.060;15.064;2023-04-21T15:30:04;5.70;;;4.60;;
4794;SDS011;2411;47.060;15.064;2023-04-21T15:32:32;7.07;;;4.90;;